sensor_id;sensor_type;location;lat;lon;timestamp;P1;durP1;ratioP1;P2;durP2;ratioP2
9218;SDS011;4644;48.858;9.184;2024-03-17T00:01:36;5.70;;;2.70;;
9218;SDS011;4644;48.858;9.184;2024-03-17T00:04:03;3.93;;;3.00;;
9218;SDS011;4644;48.858;9.184;2024-03-17T00:06:30;3.93;;;2.27;;
9218;SDS011;4644;48.858;9.184;2024-03-17T00:08:58;2.87;;;2.20;;
9218;SDS011;4644;48.858;9.184;2024-03-17T00:11:26;3.67;;;2.73;;
9218;SDS011;4644;48.858;9.184;2024-03-17T00:13:53;4.63;;;2.10;;
9218;SDS011;4644;48.858;9.184;2024-03-17T00:16:20;2.33;;;1.97;;
9218;SDS011;4644;48.858;9.184;2024-03-17T00:18:47;2.47;;;2.27;;
9218;SDS011;4644;48.858;9.184;2024-03-17T00:21:14;3.00;;;2.17;;
9218;SDS011;4644;48.858;9.184;2024-03-17T00:23:41;3.10;;;2.67;;
9218;SDS011;4644;48.858;9.184;2024-03-17T00:26:09;3.77;;;2.93;;
9218;SDS011;4644;48.858;9.184;2024-03-17T00:28:35;4.13;;;2.47;;
9218;SDS011;4644;48.858;9.184;2024-03-17T00:31:03;2.40;;;2.13;;
9218;SDS011;4644;48.858;9.184;2024-03-17T00:33:29;2.33;;;2.13;;
9218;SDS011;4644;48.858;9.184;2024-03-17T00:35:59;2.97;;;2.57;;
9218;SDS011;4644;48.858;9.184;2024-03-17T00:38:26;3.00;;;2.33;;
9218;SDS011;4644;48.858;9.184;2024-03-17T00:40:52;5.17;;;2.23;;
9218;SDS011;4644;48.858;9.184;2024-03-17T00:43:21;3.87;;;2.30;;
9218;SDS011;4644;48.858;9.184;2024-03-17T00:45:51;3.20;;;2.57;;
9218;SDS011;4644;48.858;9.184;2024-03-17T00:48:20;4.27;;;2.50;;
9218;SDS011;4644;48.858;9.184;2024-03-17T00:50:46;2.40;;;2.20;;
9218;SDS011;4644;48.858;9.184;2024-03-17T00:53:21;2.23;;;2.03;;
9218;SDS011;4644;48.858;9.184;2024-03-17T00:55:50;2.53;;;2.20;;
9218;SDS011;4644;48.858;9.184;2024-03-17T00:58:18;2.93;;;2.60;;
9218;SDS011;4644;48.858;9.184;2024-03-17T01:00:47;2.97;;;2.17;;
9218;SDS011;4644;48.858;9.184;2024-03-17T01:03:14;2.50;;;2.30;;
9218;SDS011;4644;48.858;9.184;2024-03-17T01:05:40;2.13;;;2.03;;
9218;SDS011;4644;48.858;9.184;2024-03-17T01:08:09;3.40;;;2.47;;
9218;SDS011;4644;48.858;9.184;2024-03-17T01:10:37;3.40;;;2.63;;
9218;SDS011;4644;48.858;9.184;2024-03-17T01:13:05;2.87;;;2.47;;
9218;SDS011;4644;48.858;9.184;2024-03-17T01:15:34;4.80;;;2.77;;
9218;SDS011;4644;48.858;9.184;2024-03-17T01:18:02;3.87;;;2.30;;
9218;SDS011;4644;48.858;9.184;2024-03-17T01:20:29;2.20;;;2.10;;
9218;SDS011;4644;48.858;9.184;2024-03-17T01:22:56;3.17;;;2.40;;
9218;SDS011;4644;48.858;9.184;2024-03-17T01:25:22;2.60;;;2.40;;
9218;SDS011;4644;48.858;9.184;2024-03-17T01:27:50;2.33;;;1.90;;
9218;SDS011;4644;48.858;9.184;2024-03-17T01:30:16;2.63;;;2.37;;
9218;SDS011;4644;48.858;9.184;2024-03-17T01:32:45;3.57;;;2.03;;
9218;SDS011;4644;48.858;9.184;2024-03-17T01:35:11;2.03;;;1.43;;
9218;SDS011;4644;48.858;9.184;2024-03-17T01:37:54;2.13;;;1.90;;
9218;SDS011;4644;48.858;9.184;2024-03-17T01:40:21;2.43;;;1.90;;
9218;SDS011;4644;48.858;9.184;2024-03-17T01:42:48;1.80;;;1.70;;
9218;SDS011;4644;48.858;9.184;2024-03-17T01:45:18;1.53;;;1.43;;
9218;SDS011;4644;48.858;9.184;2024-03-17T01:47:55;2.27;;;1.70;;
9218;SDS011;4644;48.858;9.184;2024-03-17T01:50:24;1.77;;;1.67;;
9218;SDS011;4644;48.858;9.184;2024-03-17T01:52:51;3.13;;;2.00;;
9218;SDS011;4644;48.858;9.184;2024-03-17T01:55:21;2.40;;;2.07;;
9218;SDS011;4644;48.858;9.184;2024-03-17T01:57:48;1.77;;;1.47;;
9218;SDS011;4644;48.858;9.184;2024-03-17T02:00:16;2.20;;;1.50;;
9218;SDS011;4644;48.858;9.184;2024-03-17T02:02:43;1.87;;;1.73;;
9218;SDS011;4644;48.858;9.184;2024-03-17T02:05:11;1.93;;;1.80;;
9218;SDS011;4644;48.858;9.184;2024-03-17T02:07:40;2.07;;;1.50;;
9218;SDS011;4644;48.858;9.184;2024-03-17T02:10:06;1.67;;;1.43;;
9218;SDS011;4644;48.858;9.184;2024-03-17T02:12:34;1.40;;;1.30;;
9218;SDS011;4644;48.858;9.184;2024-03-17T02:15:01;1.87;;;1.77;;
9218;SDS011;4644;48.858;9.184;2024-03-17T02:17:31;1.53;;;1.40;;
9218;SDS011;4644;48.858;9.184;2024-03-17T02:20:00;2.00;;;1.57;;
9218;SDS011;4644;48.858;9.184;2024-03-17T02:22:30;2.10;;;1.80;;
9218;SDS011;4644;48.858;9.184;2024-03-17T02:24:56;3.53;;;2.07;;
9218;SDS011;4644;48.858;9.184;2024-03-17T02:27:26;3.33;;;2.30;;
9218;SDS011;4644;48.858;9.184;2024-03-17T02:29:52;4.13;;;2.77;;
9218;SDS011;4644;48.858;9.184;2024-03-17T02:32:19;4.30;;;2.83;;
9218;SDS011;4644;48.858;9.184;2024-03-17T02:34:47;2.73;;;2.00;;
9218;SDS011;4644;48.858;9.184;2024-03-17T02:37:15;2.73;;;1.80;;
9218;SDS011;4644;48.858;9.184;2024-03-17T02:39:42;2.27;;;2.07;;
9218;SDS011;4644;48.858;9.184;2024-03-17T02:42:10;3.67;;;2.10;;
9218;SDS011;4644;48.858;9.184;2024-03-17T02:44:37;4.03;;;2.70;;
9218;SDS011;4644;48.858;9.184;2024-03-17T02:47:06;2.07;;;1.87;;
9218;SDS011;4644;48.858;9.184;2024-03-17T02:49:34;2.67;;;2.00;;
9218;SDS011;4644;48.858;9.184;2024-03-17T02:52:05;1.60;;;1.50;;
9218;SDS011;4644;48.858;9.184;2024-03-17T02:54:33;3.87;;;2.30;;
9218;SDS011;4644;48.858;9.184;2024-03-17T02:57:02;2.23;;;2.00;;
9218;SDS011;4644;48.858;9.184;2024-03-17T02:59:29;1.80;;;1.70;;
9218;SDS011;4644;48.858;9.184;2024-03-17T03:01:57;2.00;;;1.60;;
9218;SDS011;4644;48.858;9.184;2024-03-17T03:04:25;3.07;;;1.40;;
9218;SDS011;4644;48.858;9.184;2024-03-17T03:06:53;3.30;;;2.33;;
9218;SDS011;4644;48.858;9.184;2024-03-17T03:09:20;2.33;;;1.83;;
9218;SDS011;4644;48.858;9.184;2024-03-17T03:11:51;2.17;;;1.97;;
9218;SDS011;4644;48.858;9.184;2024-03-17T03:14:20;4.63;;;2.83;;
9218;SDS011;4644;48.858;9.184;2024-03-17T03:16:47;2.40;;;2.13;;
9218;SDS011;4644;48.858;9.184;2024-03-17T03:19:15;3.53;;;2.30;;
9218;SDS011;4644;48.858;9.184;2024-03-17T03:21:44;2.73;;;2.13;;
9218;SDS011;4644;48.858;9.184;2024-03-17T03:24:11;3.33;;;2.27;;
9218;SDS011;4644;48.858;9.184;2024-03-17T03:26:39;1.70;;;1.53;;
9218;SDS011;4644;48.858;9.184;2024-03-17T03:29:06;1.60;;;1.50;;
9218;SDS011;4644;48.858;9.184;2024-03-17T03:31:36;5.23;;;1.83;;
9218;SDS011;4644;48.858;9.184;2024-03-17T03:34:05;2.67;;;1.70;;
9218;SDS011;4644;48.858;9.184;2024-03-17T03:36:33;2.20;;;2.00;;
9218;SDS011;4644;48.858;9.184;2024-03-17T03:39:01;2.50;;;1.80;;
9218;SDS011;4644;48.858;9.184;2024-03-17T03:41:30;2.10;;;1.90;;
9218;SDS011;4644;48.858;9.184;2024-03-17T03:43:57;2.70;;;1.97;;
9218;SDS011;4644;48.858;9.184;2024-03-17T03:46:24;1.93;;;1.53;;
9218;SDS011;4644;48.858;9.184;2024-03-17T03:48:53;2.50;;;1.70;;
9218;SDS011;4644;48.858;9.184;2024-03-17T03:51:20;1.50;;;1.30;;
9218;SDS011;4644;48.858;9.184;2024-03-17T03:53:47;2.30;;;1.57;;
9218;SDS011;4644;48.858;9.184;2024-03-17T03:56:14;1.90;;;1.77;;
9218;SDS011;4644;48.858;9.184;2024-03-17T03:58:42;2.47;;;2.07;;
9218;SDS011;4644;48.858;9.184;2024-03-17T04:01:11;2.40;;;1.90;;
9218;SDS011;4644;48.858;9.184;2024-03-17T04:03:40;2.60;;;1.80;;
9218;SDS011;4644;48.858;9.184;2024-03-17T04:06:09;1.70;;;1.60;;
9218;SDS011;4644;48.858;9.184;2024-03-17T04:08:38;2.93;;;1.83;;
9218;SDS011;4644;48.858;9.184;2024-03-17T04:11:06;1.70;;;1.60;;
9218;SDS011;4644;48.858;9.184;2024-03-17T04:13:34;2.27;;;1.67;;
9218;SDS011;4644;48.858;9.184;2024-03-17T04:16:03;3.67;;;2.00;;
9218;SDS011;4644;48.858;9.184;2024-03-17T04:18:32;1.30;;;1.20;;
9218;SDS011;4644;48.858;9.184;2024-03-17T04:21:01;2.30;;;2.10;;
9218;SDS011;4644;48.858;9.184;2024-03-17T04:23:31;1.60;;;1.50;;
9218;SDS011;4644;48.858;9.184;2024-03-17T04:25:58;1.80;;;1.70;;
9218;SDS011;4644;48.858;9.184;2024-03-17T04:28:26;2.57;;;1.80;;
9218;SDS011;4644;48.858;9.184;2024-03-17T04:31:01;1.97;;;1.80;;
9218;SDS011;4644;48.858;9.184;2024-03-17T04:33:30;1.80;;;1.70;;
9218;SDS011;4644;48.858;9.184;2024-03-17T04:35:58;1.80;;;1.70;;
9218;SDS011;4644;48.858;9.184;2024-03-17T04:38:25;1.23;;;1.20;;
9218;SDS011;4644;48.858;9.184;2024-03-17T04:40:54;1.70;;;1.60;;
9218;SDS011;4644;48.858;9.184;2024-03-17T04:43:29;1.83;;;1.73;;
9218;SDS011;4644;48.858;9.184;2024-03-17T04:46:01;1.90;;;1.80;;
9218;SDS011;4644;48.858;9.184;2024-03-17T04:48:31;2.77;;;2.50;;
9218;SDS011;4644;48.858;9.184;2024-03-17T04:50:58;2.70;;;1.80;;
9218;SDS011;4644;48.858;9.184;2024-03-17T04:53:26;1.63;;;1.50;;
9218;SDS011;4644;48.858;9.184;2024-03-17T04:56:00;2.10;;;1.70;;
9218;SDS011;4644;48.858;9.184;2024-03-17T04:58:29;1.67;;;1.57;;
9218;SDS011;4644;48.858;9.184;2024-03-17T05:00:56;3.30;;;1.50;;
9218;SDS011;4644;48.858;9.184;2024-03-17T05:03:23;1.93;;;1.67;;
9218;SDS011;4644;48.858;9.184;2024-03-17T05:05:57;1.30;;;1.20;;
9218;SDS011;4644;48.858;9.184;2024-03-17T05:08:26;1.80;;;1.60;;
9218;SDS011;4644;48.858;9.184;2024-03-17T05:10:57;1.70;;;1.60;;
9218;SDS011;4644;48.858;9.184;2024-03-17T05:13:26;1.97;;;1.40;;
9218;SDS011;4644;48.858;9.184;2024-03-17T05:15:53;3.63;;;1.97;;
9218;SDS011;4644;48.858;9.184;2024-03-17T05:18:21;2.57;;;1.87;;
9218;SDS011;4644;48.858;9.184;2024-03-17T05:20:56;2.20;;;2.00;;
9218;SDS011;4644;48.858;9.184;2024-03-17T05:23:25;1.67;;;1.57;;
9218;SDS011;4644;48.858;9.184;2024-03-17T05:25:53;1.60;;;1.33;;
9218;SDS011;4644;48.858;9.184;2024-03-17T05:28:22;1.77;;;1.63;;
9218;SDS011;4644;48.858;9.184;2024-03-17T05:30:50;2.73;;;2.10;;
9218;SDS011;4644;48.858;9.184;2024-03-17T05:33:17;1.40;;;1.30;;
9218;SDS011;4644;48.858;9.184;2024-03-17T05:35:49;2.90;;;1.60;;
9218;SDS011;4644;48.858;9.184;2024-03-17T05:38:17;2.53;;;1.87;;
9218;SDS011;4644;48.858;9.184;2024-03-17T05:40:52;1.77;;;1.67;;
9218;SDS011;4644;48.858;9.184;2024-03-17T05:43:21;1.63;;;1.53;;
9218;SDS011;4644;48.858;9.184;2024-03-17T05:45:49;3.30;;;1.67;;
9218;SDS011;4644;48.858;9.184;2024-03-17T05:48:16;2.00;;;1.90;;
9218;SDS011;4644;48.858;9.184;2024-03-17T05:50:43;2.07;;;1.77;;
9218;SDS011;4644;48.858;9.184;2024-03-17T05:53:10;2.10;;;1.60;;
9218;SDS011;4644;48.858;9.184;2024-03-17T05:55:38;2.03;;;1.50;;
9218;SDS011;4644;48.858;9.184;2024-03-17T05:58:06;1.30;;;1.20;;
9218;SDS011;4644;48.858;9.184;2024-03-17T06:00:35;1.43;;;1.33;;
9218;SDS011;4644;48.858;9.184;2024-03-17T06:03:03;1.50;;;1.40;;
9218;SDS011;4644;48.858;9.184;2024-03-17T06:05:31;1.97;;;1.77;;
9218;SDS011;4644;48.858;9.184;2024-03-17T06:07:59;1.67;;;1.57;;
9218;SDS011;4644;48.858;9.184;2024-03-17T06:10:27;1.93;;;1.43;;
9218;SDS011;4644;48.858;9.184;2024-03-17T06:12:55;1.87;;;1.53;;
9218;SDS011;4644;48.858;9.184;2024-03-17T06:15:22;1.37;;;1.27;;
9218;SDS011;4644;48.858;9.184;2024-03-17T06:17:51;1.37;;;1.27;;
9218;SDS011;4644;48.858;9.184;2024-03-17T06:20:19;1.80;;;1.50;;
9218;SDS011;4644;48.858;9.184;2024-03-17T06:22:46;1.60;;;1.50;;
9218;SDS011;4644;48.858;9.184;2024-03-17T06:25:14;1.47;;;1.37;;
9218;SDS011;4644;48.858;9.184;2024-03-17T06:27:41;1.97;;;1.53;;
9218;SDS011;4644;48.858;9.184;2024-03-17T06:30:10;1.90;;;1.47;;
9218;SDS011;4644;48.858;9.184;2024-03-17T06:32:39;2.03;;;1.93;;
9218;SDS011;4644;48.858;9.184;2024-03-17T06:35:09;1.70;;;1.43;;
9218;SDS011;4644;48.858;9.184;2024-03-17T06:37:36;1.40;;;1.30;;
9218;SDS011;4644;48.858;9.184;2024-03-17T06:40:03;1.80;;;1.70;;
9218;SDS011;4644;48.858;9.184;2024-03-17T06:42:31;1.37;;;1.27;;
9218;SDS011;4644;48.858;9.184;2024-03-17T06:44:59;1.77;;;1.67;;
9218;SDS011;4644;48.858;9.184;2024-03-17T06:47:26;2.13;;;1.70;;
9218;SDS011;4644;48.858;9.184;2024-03-17T06:49:53;1.67;;;1.50;;
9218;SDS011;4644;48.858;9.184;2024-03-17T06:52:22;4.13;;;2.23;;
9218;SDS011;4644;48.858;9.184;2024-03-17T06:54:49;1.60;;;1.50;;
9218;SDS011;4644;48.858;9.184;2024-03-17T06:57:16;1.57;;;1.43;;
9218;SDS011;4644;48.858;9.184;2024-03-17T06:59:43;2.30;;;2.10;;
9218;SDS011;4644;48.858;9.184;2024-03-17T07:02:11;1.70;;;1.60;;
9218;SDS011;4644;48.858;9.184;2024-03-17T07:04:42;2.17;;;1.97;;
9218;SDS011;4644;48.858;9.184;2024-03-17T07:07:09;1.53;;;1.30;;
9218;SDS011;4644;48.858;9.184;2024-03-17T07:09:39;1.00;;;1.00;;
9218;SDS011;4644;48.858;9.184;2024-03-17T07:12:07;2.10;;;1.27;;
9218;SDS011;4644;48.858;9.184;2024-03-17T07:14:35;2.40;;;1.43;;
9218;SDS011;4644;48.858;9.184;2024-03-17T07:17:02;1.77;;;1.67;;
9218;SDS011;4644;48.858;9.184;2024-03-17T07:19:30;2.07;;;1.97;;
9218;SDS011;4644;48.858;9.184;2024-03-17T07:21:58;2.47;;;2.27;;
9218;SDS011;4644;48.858;9.184;2024-03-17T07:24:25;1.97;;;1.83;;
9218;SDS011;4644;48.858;9.184;2024-03-17T07:26:54;3.17;;;2.37;;
9218;SDS011;4644;48.858;9.184;2024-03-17T07:29:21;2.37;;;1.90;;
9218;SDS011;4644;48.858;9.184;2024-03-17T07:31:48;2.67;;;2.30;;
9218;SDS011;4644;48.858;9.184;2024-03-17T07:34:15;2.30;;;1.77;;
9218;SDS011;4644;48.858;9.184;2024-03-17T07:36:43;2.50;;;2.03;;
9218;SDS011;4644;48.858;9.184;2024-03-17T07:39:11;2.00;;;1.80;;
9218;SDS011;4644;48.858;9.184;2024-03-17T07:41:39;2.37;;;2.17;;
9218;SDS011;4644;48.858;9.184;2024-03-17T07:44:07;2.77;;;2.30;;
9218;SDS011;4644;48.858;9.184;2024-03-17T07:46:35;2.20;;;2.00;;
9218;SDS011;4644;48.858;9.184;2024-03-17T07:49:02;2.13;;;1.93;;
9218;SDS011;4644;48.858;9.184;2024-03-17T07:51:29;3.47;;;2.37;;
9218;SDS011;4644;48.858;9.184;2024-03-17T07:53:59;2.50;;;2.20;;
9218;SDS011;4644;48.858;9.184;2024-03-17T07:56:26;5.13;;;2.87;;
9218;SDS011;4644;48.858;9.184;2024-03-17T07:58:55;2.13;;;1.93;;
9218;SDS011;4644;48.858;9.184;2024-03-17T08:01:24;3.30;;;2.63;;
9218;SDS011;4644;48.858;9.184;2024-03-17T08:03:52;3.13;;;2.90;;
9218;SDS011;4644;48.858;9.184;2024-03-17T08:06:20;3.17;;;2.60;;
9218;SDS011;4644;48.858;9.184;2024-03-17T08:08:50;3.40;;;2.70;;
9218;SDS011;4644;48.858;9.184;2024-03-17T08:11:19;4.40;;;3.30;;
9218;SDS011;4644;48.858;9.184;2024-03-17T08:13:46;3.03;;;2.73;;
9218;SDS011;4644;48.858;9.184;2024-03-17T08:16:14;4.67;;;3.13;;
9218;SDS011;4644;48.858;9.184;2024-03-17T08:18:44;5.23;;;3.37;;
9218;SDS011;4644;48.858;9.184;2024-03-17T08:21:11;4.90;;;3.20;;
9218;SDS011;4644;48.858;9.184;2024-03-17T08:23:38;3.73;;;2.93;;
9218;SDS011;4644;48.858;9.184;2024-03-17T08:26:08;2.83;;;2.50;;
9218;SDS011;4644;48.858;9.184;2024-03-17T08:28:35;3.40;;;2.50;;
9218;SDS011;4644;48.858;9.184;2024-03-17T08:31:02;3.57;;;2.57;;
9218;SDS011;4644;48.858;9.184;2024-03-17T08:33:30;4.20;;;2.87;;
9218;SDS011;4644;48.858;9.184;2024-03-17T08:36:00;2.97;;;2.67;;
9218;SDS011;4644;48.858;9.184;2024-03-17T08:38:29;4.13;;;2.67;;
9218;SDS011;4644;48.858;9.184;2024-03-17T08:40:58;3.27;;;2.97;;
9218;SDS011;4644;48.858;9.184;2024-03-17T08:43:28;3.03;;;2.73;;
9218;SDS011;4644;48.858;9.184;2024-03-17T08:45:55;3.47;;;3.03;;
9218;SDS011;4644;48.858;9.184;2024-03-17T08:48:25;2.70;;;2.50;;
9218;SDS011;4644;48.858;9.184;2024-03-17T08:50:54;3.03;;;2.77;;
9218;SDS011;4644;48.858;9.184;2024-03-17T08:53:23;4.00;;;2.70;;
9218;SDS011;4644;48.858;9.184;2024-03-17T08:55:50;3.33;;;3.03;;
9218;SDS011;4644;48.858;9.184;2024-03-17T08:58:17;3.20;;;2.67;;
9218;SDS011;4644;48.858;9.184;2024-03-17T09:00:45;3.17;;;2.67;;
9218;SDS011;4644;48.858;9.184;2024-03-17T09:03:12;3.03;;;2.67;;
9218;SDS011;4644;48.858;9.184;2024-03-17T09:05:40;3.60;;;2.73;;
9218;SDS011;4644;48.858;9.184;2024-03-17T09:08:09;3.13;;;2.50;;
9218;SDS011;4644;48.858;9.184;2024-03-17T09:10:44;1.90;;;1.70;;
9218;SDS011;4644;48.858;9.184;2024-03-17T09:13:12;2.70;;;2.33;;
9218;SDS011;4644;48.858;9.184;2024-03-17T09:15:41;2.50;;;2.10;;
9218;SDS011;4644;48.858;9.184;2024-03-17T09:18:15;2.43;;;2.10;;
9218;SDS011;4644;48.858;9.184;2024-03-17T09:20:43;2.40;;;2.20;;
9218;SDS011;4644;48.858;9.184;2024-03-17T09:23:11;4.23;;;2.23;;
9218;SDS011;4644;48.858;9.184;2024-03-17T09:25:39;1.87;;;1.73;;
9218;SDS011;4644;48.858;9.184;2024-03-17T09:28:08;2.27;;;2.07;;
9218;SDS011;4644;48.858;9.184;2024-03-17T09:30:36;2.57;;;2.20;;
9218;SDS011;4644;48.858;9.184;2024-03-17T09:33:03;2.00;;;1.83;;
9218;SDS011;4644;48.858;9.184;2024-03-17T09:35:31;2.03;;;1.90;;
9218;SDS011;4644;48.858;9.184;2024-03-17T09:37:58;2.13;;;1.83;;
9218;SDS011;4644;48.858;9.184;2024-03-17T09:40:25;1.70;;;1.60;;
9218;SDS011;4644;48.858;9.184;2024-03-17T09:42:52;2.00;;;1.80;;
9218;SDS011;4644;48.858;9.184;2024-03-17T09:45:21;2.63;;;2.17;;
9218;SDS011;4644;48.858;9.184;2024-03-17T09:47:51;1.70;;;1.60;;
9218;SDS011;4644;48.858;9.184;2024-03-17T09:50:18;1.90;;;1.70;;
9218;SDS011;4644;48.858;9.184;2024-03-17T09:52:45;2.57;;;2.37;;
9218;SDS011;4644;48.858;9.184;2024-03-17T09:55:15;2.03;;;1.83;;
9218;SDS011;4644;48.858;9.184;2024-03-17T09:57:43;1.90;;;1.80;;
9218;SDS011;4644;48.858;9.184;2024-03-17T10:00:13;1.97;;;1.80;;
9218;SDS011;4644;48.858;9.184;2024-03-17T10:02:43;2.33;;;1.80;;
9218;SDS011;4644;48.858;9.184;2024-03-17T10:05:18;1.93;;;1.67;;
9218;SDS011;4644;48.858;9.184;2024-03-17T10:07:46;1.87;;;1.77;;
9218;SDS011;4644;48.858;9.184;2024-03-17T10:10:14;2.10;;;1.90;;
9218;SDS011;4644;48.858;9.184;2024-03-17T10:12:43;1.57;;;1.47;;
9218;SDS011;4644;48.858;9.184;2024-03-17T10:15:15;1.93;;;1.83;;
9218;SDS011;4644;48.858;9.184;2024-03-17T10:17:44;2.47;;;1.93;;
9218;SDS011;4644;48.858;9.184;2024-03-17T10:20:12;2.00;;;1.90;;
9218;SDS011;4644;48.858;9.184;2024-03-17T10:25:27;1.47;;;1.37;;
9218;SDS011;4644;48.858;9.184;2024-03-17T10:27:55;1.63;;;1.53;;
9218;SDS011;4644;48.858;9.184;2024-03-17T10:30:23;1.50;;;1.40;;
9218;SDS011;4644;48.858;9.184;2024-03-17T10:32:56;1.43;;;1.30;;
9218;SDS011;4644;48.858;9.184;2024-03-17T10:35:29;2.57;;;1.90;;
9218;SDS011;4644;48.858;9.184;2024-03-17T10:37:57;1.70;;;1.60;;
9218;SDS011;4644;48.858;9.184;2024-03-17T10:40:25;2.03;;;1.83;;
9218;SDS011;4644;48.858;9.184;2024-03-17T10:42:54;1.60;;;1.50;;
9218;SDS011;4644;48.858;9.184;2024-03-17T10:45:23;1.20;;;1.10;;
9218;SDS011;4644;48.858;9.184;2024-03-17T10:47:51;1.30;;;1.27;;
9218;SDS011;4644;48.858;9.184;2024-03-17T10:50:21;1.10;;;1.10;;
9218;SDS011;4644;48.858;9.184;2024-03-17T10:52:50;1.43;;;1.33;;
9218;SDS011;4644;48.858;9.184;2024-03-17T10:55:21;1.30;;;1.20;;
9218;SDS011;4644;48.858;9.184;2024-03-17T10:57:48;1.33;;;1.30;;
9218;SDS011;4644;48.858;9.184;2024-03-17T11:00:17;1.67;;;1.20;;
9218;SDS011;4644;48.858;9.184;2024-03-17T11:02:47;1.70;;;1.60;;
9218;SDS011;4644;48.858;9.184;2024-03-17T11:05:21;1.43;;;1.33;;
9218;SDS011;4644;48.858;9.184;2024-03-17T11:07:50;1.50;;;1.40;;
9218;SDS011;4644;48.858;9.184;2024-03-17T11:10:20;1.60;;;1.50;;
9218;SDS011;4644;48.858;9.184;2024-03-17T11:12:49;1.37;;;1.27;;
9218;SDS011;4644;48.858;9.184;2024-03-17T11:15:35;1.20;;;1.20;;
9218;SDS011;4644;48.858;9.184;2024-03-17T11:18:28;1.50;;;1.40;;
9218;SDS011;4644;48.858;9.184;2024-03-17T11:20:59;1.23;;;1.13;;
9218;SDS011;4644;48.858;9.184;2024-03-17T11:23:33;1.20;;;1.17;;
9218;SDS011;4644;48.858;9.184;2024-03-17T11:26:02;1.90;;;1.20;;
9218;SDS011;4644;48.858;9.184;2024-03-17T11:28:50;1.40;;;1.30;;
9218;SDS011;4644;48.858;9.184;2024-03-17T11:36:56;1.40;;;1.30;;
9218;SDS011;4644;48.858;9.184;2024-03-17T11:42:18;1.30;;;1.20;;
9218;SDS011;4644;48.858;9.184;2024-03-17T11:44:54;1.10;;;1.10;;
9218;SDS011;4644;48.858;9.184;2024-03-17T11:47:28;1.10;;;1.10;;
9218;SDS011;4644;48.858;9.184;2024-03-17T11:50:01;1.10;;;1.10;;
9218;SDS011;4644;48.858;9.184;2024-03-17T11:52:31;1.33;;;1.23;;
9218;SDS011;4644;48.858;9.184;2024-03-17T11:54:57;1.17;;;1.07;;
9218;SDS011;4644;48.858;9.184;2024-03-17T11:57:25;1.40;;;1.30;;
9218;SDS011;4644;48.858;9.184;2024-03-17T11:59:52;1.13;;;1.13;;
9218;SDS011;4644;48.858;9.184;2024-03-17T12:02:21;1.10;;;1.10;;
9218;SDS011;4644;48.858;9.184;2024-03-17T12:04:50;1.13;;;1.03;;
9218;SDS011;4644;48.858;9.184;2024-03-17T12:07:18;1.40;;;1.30;;
9218;SDS011;4644;48.858;9.184;2024-03-17T12:09:47;1.30;;;1.20;;
9218;SDS011;4644;48.858;9.184;2024-03-17T12:12:16;1.53;;;1.37;;
9218;SDS011;4644;48.858;9.184;2024-03-17T12:14:44;1.50;;;1.40;;
9218;SDS011;4644;48.858;9.184;2024-03-17T12:17:12;1.33;;;1.23;;
9218;SDS011;4644;48.858;9.184;2024-03-17T12:19:39;1.23;;;1.13;;
9218;SDS011;4644;48.858;9.184;2024-03-17T12:22:07;1.60;;;1.50;;
9218;SDS011;4644;48.858;9.184;2024-03-17T12:24:37;1.20;;;1.10;;
9218;SDS011;4644;48.858;9.184;2024-03-17T12:27:06;1.40;;;1.30;;
9218;SDS011;4644;48.858;9.184;2024-03-17T12:29:33;2.67;;;1.30;;
9218;SDS011;4644;48.858;9.184;2024-03-17T12:32:05;1.30;;;1.20;;
9218;SDS011;4644;48.858;9.184;2024-03-17T12:34:38;1.50;;;1.40;;
9218;SDS011;4644;48.858;9.184;2024-03-17T12:37:06;1.17;;;1.10;;
9218;SDS011;4644;48.858;9.184;2024-03-17T12:39:33;1.47;;;1.30;;
9218;SDS011;4644;48.858;9.184;2024-03-17T12:42:06;1.30;;;1.20;;
9218;SDS011;4644;48.858;9.184;2024-03-17T12:44:33;0.97;;;0.97;;
9218;SDS011;4644;48.858;9.184;2024-03-17T12:47:03;1.30;;;1.20;;
9218;SDS011;4644;48.858;9.184;2024-03-17T12:49:31;1.67;;;1.23;;
9218;SDS011;4644;48.858;9.184;2024-03-17T12:51:59;1.20;;;1.20;;
9218;SDS011;4644;48.858;9.184;2024-03-17T12:54:26;1.20;;;1.10;;
9218;SDS011;4644;48.858;9.184;2024-03-17T12:57:03;1.30;;;1.20;;
9218;SDS011;4644;48.858;9.184;2024-03-17T12:59:50;2.10;;;1.27;;
9218;SDS011;4644;48.858;9.184;2024-03-17T13:02:34;1.20;;;1.17;;
9218;SDS011;4644;48.858;9.184;2024-03-17T13:05:10;1.33;;;1.27;;
9218;SDS011;4644;48.858;9.184;2024-03-17T13:07:42;1.30;;;1.20;;
9218;SDS011;4644;48.858;9.184;2024-03-17T13:10:11;1.43;;;1.33;;
9218;SDS011;4644;48.858;9.184;2024-03-17T13:12:43;1.27;;;1.00;;
9218;SDS011;4644;48.858;9.184;2024-03-17T13:15:11;1.40;;;1.40;;
9218;SDS011;4644;48.858;9.184;2024-03-17T13:17:40;1.27;;;1.27;;
9218;SDS011;4644;48.858;9.184;2024-03-17T13:20:08;1.50;;;1.40;;
9218;SDS011;4644;48.858;9.184;2024-03-17T13:22:40;1.50;;;1.40;;
9218;SDS011;4644;48.858;9.184;2024-03-17T13:25:09;1.40;;;1.30;;
9218;SDS011;4644;48.858;9.184;2024-03-17T13:27:41;2.20;;;1.23;;
9218;SDS011;4644;48.858;9.184;2024-03-17T13:30:10;1.17;;;1.17;;
9218;SDS011;4644;48.858;9.184;2024-03-17T13:32:38;0.90;;;0.90;;
9218;SDS011;4644;48.858;9.184;2024-03-17T13:35:05;1.47;;;1.37;;
9218;SDS011;4644;48.858;9.184;2024-03-17T13:37:36;1.33;;;1.20;;
9218;SDS011;4644;48.858;9.184;2024-03-17T13:40:04;1.20;;;1.10;;
9218;SDS011;4644;48.858;9.184;2024-03-17T13:42:32;1.30;;;1.30;;
9218;SDS011;4644;48.858;9.184;2024-03-17T13:44:59;1.27;;;1.17;;
9218;SDS011;4644;48.858;9.184;2024-03-17T13:47:27;1.67;;;1.57;;
9218;SDS011;4644;48.858;9.184;2024-03-17T13:49:55;1.20;;;1.10;;
9218;SDS011;4644;48.858;9.184;2024-03-17T13:52:23;1.40;;;1.07;;
9218;SDS011;4644;48.858;9.184;2024-03-17T13:54:50;1.53;;;1.43;;
9218;SDS011;4644;48.858;9.184;2024-03-17T13:57:17;1.40;;;1.30;;
9218;SDS011;4644;48.858;9.184;2024-03-17T13:59:45;2.00;;;1.63;;
9218;SDS011;4644;48.858;9.184;2024-03-17T14:02:13;1.30;;;1.20;;
9218;SDS011;4644;48.858;9.184;2024-03-17T14:04:42;0.83;;;0.83;;
9218;SDS011;4644;48.858;9.184;2024-03-17T14:07:09;1.47;;;1.37;;
9218;SDS011;4644;48.858;9.184;2024-03-17T14:09:36;0.93;;;0.93;;
9218;SDS011;4644;48.858;9.184;2024-03-17T14:12:03;1.93;;;1.13;;
9218;SDS011;4644;48.858;9.184;2024-03-17T14:14:31;1.10;;;1.00;;
9218;SDS011;4644;48.858;9.184;2024-03-17T14:16:58;0.83;;;0.83;;
9218;SDS011;4644;48.858;9.184;2024-03-17T14:19:26;1.47;;;1.37;;
9218;SDS011;4644;48.858;9.184;2024-03-17T14:21:54;1.33;;;1.23;;
9218;SDS011;4644;48.858;9.184;2024-03-17T14:24:21;1.70;;;1.50;;
9218;SDS011;4644;48.858;9.184;2024-03-17T14:26:48;1.37;;;1.27;;
9218;SDS011;4644;48.858;9.184;2024-03-17T14:29:16;0.90;;;0.90;;
9218;SDS011;4644;48.858;9.184;2024-03-17T14:31:43;1.00;;;1.00;;
9218;SDS011;4644;48.858;9.184;2024-03-17T14:34:10;1.40;;;1.30;;
9218;SDS011;4644;48.858;9.184;2024-03-17T14:36:37;1.90;;;1.10;;
9218;SDS011;4644;48.858;9.184;2024-03-17T14:39:06;1.10;;;1.10;;
9218;SDS011;4644;48.858;9.184;2024-03-17T14:41:33;1.47;;;1.37;;
9218;SDS011;4644;48.858;9.184;2024-03-17T14:44:03;1.10;;;1.07;;
9218;SDS011;4644;48.858;9.184;2024-03-17T14:46:30;1.37;;;1.27;;
9218;SDS011;4644;48.858;9.184;2024-03-17T14:48:58;1.30;;;1.20;;
9218;SDS011;4644;48.858;9.184;2024-03-17T14:51:26;1.90;;;0.90;;
9218;SDS011;4644;48.858;9.184;2024-03-17T14:53:53;1.13;;;1.03;;
9218;SDS011;4644;48.858;9.184;2024-03-17T14:56:23;1.00;;;1.00;;
9218;SDS011;4644;48.858;9.184;2024-03-17T14:58:53;1.00;;;0.90;;
9218;SDS011;4644;48.858;9.184;2024-03-17T15:01:20;1.07;;;1.07;;
9218;SDS011;4644;48.858;9.184;2024-03-17T15:03:47;1.07;;;1.07;;
9218;SDS011;4644;48.858;9.184;2024-03-17T15:06:16;2.90;;;1.23;;
9218;SDS011;4644;48.858;9.184;2024-03-17T15:08:43;1.63;;;1.53;;
9218;SDS011;4644;48.858;9.184;2024-03-17T15:11:11;1.20;;;1.10;;
9218;SDS011;4644;48.858;9.184;2024-03-17T15:13:39;1.80;;;1.23;;
9218;SDS011;4644;48.858;9.184;2024-03-17T15:16:08;0.87;;;0.87;;
9218;SDS011;4644;48.858;9.184;2024-03-17T15:18:38;1.03;;;0.93;;
9218;SDS011;4644;48.858;9.184;2024-03-17T15:21:05;1.10;;;1.10;;
9218;SDS011;4644;48.858;9.184;2024-03-17T15:23:32;1.10;;;1.10;;
9218;SDS011;4644;48.858;9.184;2024-03-17T15:25:59;1.50;;;1.13;;
9218;SDS011;4644;48.858;9.184;2024-03-17T15:28:31;1.07;;;1.03;;
9218;SDS011;4644;48.858;9.184;2024-03-17T15:31:00;1.00;;;1.00;;
9218;SDS011;4644;48.858;9.184;2024-03-17T15:33:29;1.03;;;0.93;;
9218;SDS011;4644;48.858;9.184;2024-03-17T15:36:00;0.93;;;0.93;;